Time;durP1;ratioP1;P1;durP2;ratioP2;P2;SDS_P1;SDS_P2;PMS_P1;PMS_P2;Temp;Humidity;BMP_temperature;BMP_pressure;BME280_temperature;BME280_humidity;BME280_pressure;Samples;Min_cycle;Max_cycle;Signal;HPM_P1;HPM_P2
2024/01/12 00:02:15;;;;;;;30.47;17.93;;;;;;;;;;5101672;28;20844;-77
2024/01/12 00:04:42;;;;;;;36.67;18.80;;;;;;;;;;5101007;28;20531;-78
2024/01/12 00:07:08;;;;;;;37.60;18.47;;;;;;;;;;5101932;28;20509;-78
2024/01/12 00:09:36;;;;;;;28.00;19.67;;;;;;;;;;5100735;28;20552;-78
2024/01/12 00:12:04;;;;;;;29.40;19.20;;;;;;;;;;5101205;28;20851;-77
2024/01/12 00:14:31;;;;;;;25.80;17.30;;;;;;;;;;5100467;28;20474;-77
2024/01/12 00:16:57;;;;;;;29.30;17.43;;;;;;;;;;5101103;28;20529;-78
2024/01/12 00:19:23;;;;;;;38.57;19.47;;;;;;;;;;5100638;28;20541;-78
2024/01/12 00:21:52;;;;;;;34.50;18.07;;;;;;;;;;5100873;28;20533;-77
2024/01/12 00:24:19;;;;;;;35.10;18.20;;;;;;;;;;5099175;28;20523;-78
2024/01/12 00:26:48;;;;;;;34.23;19.73;;;;;;;;;;5098789;28;20449;-78
2024/01/12 00:29:14;;;;;;;38.00;20.20;;;;;;;;;;5100151;28;21014;-78
2024/01/12 00:31:41;;;;;;;44.17;19.60;;;;;;;;;;5100269;28;20501;-78
2024/01/12 00:34:07;;;;;;;36.53;19.33;;;;;;;;;;5099795;28;21038;-77
2024/01/12 00:36:34;;;;;;;43.50;21.50;;;;;;;;;;5099949;28;20533;-77
2024/01/12 00:39:00;;;;;;;42.00;19.60;;;;;;;;;;5099232;28;20529;-76
2024/01/12 00:41:27;;;;;;;57.53;21.10;;;;;;;;;;5100127;28;20488;-77
2024/01/12 00:43:55;;;;;;;58.80;23.40;;;;;;;;;;5100039;28;21046;-78
2024/01/12 00:46:22;;;;;;;49.67;22.90;;;;;;;;;;5100475;28;20457;-78
2024/01/12 00:48:50;;;;;;;44.67;22.80;;;;;;;;;;5099195;28;20536;-76
2024/01/12 00:51:16;;;;;;;48.33;23.20;;;;;;;;;;5099134;28;20966;-78
2024/01/12 00:53:43;;;;;;;53.57;20.37;;;;;;;;;;5098740;28;20548;-77
2024/01/12 00:56:09;;;;;;;53.37;23.50;;;;;;;;;;5098963;28;20541;-77
2024/01/12 00:58:36;;;;;;;55.07;21.83;;;;;;;;;;5098241;28;21073;-76
2024/01/12 01:01:06;;;;;;;60.27;24.03;;;;;;;;;;5098856;28;20906;-78
2024/01/12 01:03:32;;;;;;;50.97;22.47;;;;;;;;;;5099265;28;20545;-78
2024/01/12 01:05:59;;;;;;;61.13;22.93;;;;;;;;;;5097414;28;20458;-77
2024/01/12 01:08:26;;;;;;;48.77;21.13;;;;;;;;;;5099181;28;20544;-78
2024/01/12 01:10:52;;;;;;;51.10;22.20;;;;;;;;;;5099306;28;20444;-76
2024/01/12 01:13:19;;;;;;;65.63;23.90;;;;;;;;;;5098531;28;20488;-76
2024/01/12 01:15:45;;;;;;;46.43;20.97;;;;;;;;;;5098654;28;20533;-77
2024/01/12 01:18:15;;;;;;;48.10;22.90;;;;;;;;;;5099140;28;20553;-76
2024/01/12 01:20:41;;;;;;;53.17;22.07;;;;;;;;;;5099713;28;20525;-76
2024/01/12 01:23:08;;;;;;;58.70;23.77;;;;;;;;;;5098821;28;20555;-77
2024/01/12 01:25:34;;;;;;;60.00;20.47;;;;;;;;;;5099487;28;20537;-77
2024/01/12 01:28:01;;;;;;;59.57;24.60;;;;;;;;;;5098569;28;20548;-77
2024/01/12 01:30:28;;;;;;;57.30;21.60;;;;;;;;;;5099852;28;20445;-76
2024/01/12 01:32:55;;;;;;;51.20;22.60;;;;;;;;;;5099091;28;20462;-77
2024/01/12 01:35:24;;;;;;;58.20;23.37;;;;;;;;;;5099879;28;20553;-76
2024/01/12 01:37:51;;;;;;;68.63;23.33;;;;;;;;;;5099582;28;20505;-76
2024/01/12 01:40:18;;;;;;;62.90;22.30;;;;;;;;;;5098754;28;20944;-77
2024/01/12 01:42:47;;;;;;;58.90;21.77;;;;;;;;;;5098743;28;20505;-77
2024/01/12 01:45:16;;;;;;;42.83;22.53;;;;;;;;;;5097565;28;20496;-77
2024/01/12 01:47:43;;;;;;;64.93;23.50;;;;;;;;;;5099326;28;20444;-77
2024/01/12 01:50:09;;;;;;;45.20;21.03;;;;;;;;;;5099293;28;20524;-77
2024/01/12 01:52:37;;;;;;;51.10;21.70;;;;;;;;;;5098542;28;20549;-76
2024/01/12 01:55:04;;;;;;;62.77;22.90;;;;;;;;;;5098381;28;20465;-77
2024/01/12 01:57:31;;;;;;;59.50;22.47;;;;;;;;;;5099290;28;20438;-77
2024/01/12 01:59:58;;;;;;;38.80;21.67;;;;;;;;;;5098711;28;20541;-77
2024/01/12 02:02:25;;;;;;;41.40;21.10;;;;;;;;;;5099257;28;20518;-76
2024/01/12 02:04:52;;;;;;;37.20;20.17;;;;;;;;;;5098256;28;20549;-78
2024/01/12 02:07:18;;;;;;;55.33;18.07;;;;;;;;;;5097095;28;20496;-78
2024/01/12 02:09:46;;;;;;;43.13;17.73;;;;;;;;;;5099323;28;20486;-77
2024/01/12 02:12:13;;;;;;;42.67;17.03;;;;;;;;;;5103085;28;20487;-76
2024/01/12 02:14:39;;;;;;;37.53;17.33;;;;;;;;;;5102665;28;20540;-78
2024/01/12 02:17:06;;;;;;;43.37;15.47;;;;;;;;;;5102133;28;20532;-79
2024/01/12 02:19:32;;;;;;;40.57;14.90;;;;;;;;;;5100899;28;20466;-78
2024/01/12 02:22:01;;;;;;;37.33;16.10;;;;;;;;;;5102028;28;20497;-78
2024/01/12 02:24:27;;;;;;;32.50;13.83;;;;;;;;;;5101599;28;20560;-78
2024/01/12 02:26:54;;;;;;;32.67;14.80;;;;;;;;;;5102818;28;20521;-77
2024/01/12 02:29:20;;;;;;;33.80;15.07;;;;;;;;;;5102321;28;20561;-76
2024/01/12 02:31:47;;;;;;;34.43;14.83;;;;;;;;;;5102296;28;20505;-78
2024/01/12 02:34:15;;;;;;;28.13;14.00;;;;;;;;;;5101592;28;20532;-76
2024/01/12 02:36:41;;;;;;;39.27;13.80;;;;;;;;;;5102703;28;20521;-76
2024/01/12 02:39:10;;;;;;;41.80;12.00;;;;;;;;;;5102175;28;20545;-77
2024/01/12 02:41:36;;;;;;;35.23;13.57;;;;;;;;;;5102903;28;20473;-77
2024/01/12 02:44:03;;;;;;;28.00;11.50;;;;;;;;;;5101975;28;20544;-77
2024/01/12 02:46:29;;;;;;;29.30;12.00;;;;;;;;;;5102333;28;21033;-77
2024/01/12 02:48:56;;;;;;;38.67;12.40;;;;;;;;;;5102141;28;20472;-78
2024/01/12 02:51:23;;;;;;;30.70;12.30;;;;;;;;;;5102405;28;21035;-78
2024/01/12 02:53:49;;;;;;;36.23;12.40;;;;;;;;;;5101630;28;20561;-77
2024/01/12 02:56:17;;;;;;;24.07;10.40;;;;;;;;;;5101797;28;20869;-77
2024/01/12 02:58:44;;;;;;;29.90;8.80;;;;;;;;;;5102443;28;20562;-78
2024/01/12 03:01:10;;;;;;;26.33;9.87;;;;;;;;;;5100743;28;20489;-77
2024/01/12 03:03:37;;;;;;;22.57;9.10;;;;;;;;;;5102171;28;20557;-77
2024/01/12 03:06:05;;;;;;;25.43;9.87;;;;;;;;;;5102243;28;20895;-78
2024/01/12 03:08:31;;;;;;;13.80;7.57;;;;;;;;;;5101891;28;20477;-77
2024/01/12 03:10:58;;;;;;;18.23;7.97;;;;;;;;;;5102164;28;20525;-77
2024/01/12 03:13:26;;;;;;;18.63;9.33;;;;;;;;;;5101572;28;20568;-77
2024/01/12 03:15:52;;;;;;;26.63;9.90;;;;;;;;;;5101911;28;20489;-78
2024/01/12 03:18:19;;;;;;;28.63;11.33;;;;;;;;;;5101142;28;20553;-78
2024/01/12 03:20:45;;;;;;;22.40;11.10;;;;;;;;;;5100396;28;20438;-77
2024/01/12 03:23:12;;;;;;;24.20;10.30;;;;;;;;;;5101192;28;20529;-77
2024/01/12 03:25:38;;;;;;;19.67;10.20;;;;;;;;;;5100606;28;20546;-77
2024/01/12 03:28:08;;;;;;;50.70;11.50;;;;;;;;;;5101211;28;20521;-77
2024/01/12 03:30:39;;;;;;;35.13;10.27;;;;;;;;;;5100373;28;20465;-77
2024/01/12 03:33:07;;;;;;;20.80;10.97;;;;;;;;;;5099128;28;20462;-77
2024/01/12 03:35:35;;;;;;;41.70;11.03;;;;;;;;;;5101555;28;20543;-77
2024/01/12 03:38:02;;;;;;;42.57;9.80;;;;;;;;;;5101090;28;20617;-77
2024/01/12 03:40:28;;;;;;;51.57;11.63;;;;;;;;;;5100804;28;20441;-78
2024/01/12 03:42:55;;;;;;;40.07;10.60;;;;;;;;;;5100580;28;20541;-76
2024/01/12 03:45:21;;;;;;;20.43;9.63;;;;;;;;;;5101076;28;20541;-77
2024/01/12 03:47:51;;;;;;;48.33;12.00;;;;;;;;;;5100269;28;20533;-76
2024/01/12 03:50:17;;;;;;;35.47;10.67;;;;;;;;;;5100719;28;20489;-77
2024/01/12 03:52:44;;;;;;;27.23;10.80;;;;;;;;;;5100182;28;20469;-78
2024/01/12 03:55:11;;;;;;;34.20;11.97;;;;;;;;;;5100881;28;20549;-77
2024/01/12 03:57:39;;;;;;;27.03;10.93;;;;;;;;;;5101195;28;20494;-77
2024/01/12 04:00:07;;;;;;;27.97;11.10;;;;;;;;;;5099887;28;20441;-77
2024/01/12 04:02:34;;;;;;;27.30;11.40;;;;;;;;;;5100212;28;20940;-77
2024/01/12 04:05:03;;;;;;;33.30;12.77;;;;;;;;;;5099791;28;20560;-77
2024/01/12 04:07:29;;;;;;;42.73;12.13;;;;;;;;;;5100133;28;20481;-76
2024/01/12 04:09:56;;;;;;;39.80;11.70;;;;;;;;;;5100037;28;20497;-77
2024/01/12 04:12:22;;;;;;;22.00;11.30;;;;;;;;;;5100424;28;20521;-77
2024/01/12 04:14:49;;;;;;;19.97;11.30;;;;;;;;;;5099250;28;20545;-76
2024/01/12 04:17:16;;;;;;;29.07;12.90;;;;;;;;;;5098701;28;20442;-77
2024/01/12 04:19:42;;;;;;;30.30;14.70;;;;;;;;;;5099539;28;20466;-76
2024/01/12 04:22:11;;;;;;;26.47;12.00;;;;;;;;;;5099881;28;20525;-77
2024/01/12 04:24:37;;;;;;;22.63;11.43;;;;;;;;;;5099623;28;20912;-77
2024/01/12 04:27:05;;;;;;;31.13;12.43;;;;;;;;;;5099426;28;20521;-76
2024/01/12 04:29:31;;;;;;;39.40;13.60;;;;;;;;;;5099112;28;20473;-76
2024/01/12 04:31:57;;;;;;;50.80;13.67;;;;;;;;;;5099780;28;20529;-76
2024/01/12 04:34:24;;;;;;;42.37;14.87;;;;;;;;;;5097846;28;20476;-77
2024/01/12 04:36:50;;;;;;;40.73;15.97;;;;;;;;;;5099682;28;20505;-76
2024/01/12 04:39:18;;;;;;;68.30;17.33;;;;;;;;;;5099802;28;20561;-77
2024/01/12 04:41:46;;;;;;;55.67;17.57;;;;;;;;;;5098645;28;20817;-77
2024/01/12 04:44:13;;;;;;;73.03;17.50;;;;;;;;;;5099014;28;20828;-77
2024/01/12 04:46:39;;;;;;;64.83;16.93;;;;;;;;;;5099288;28;21015;-76
2024/01/12 04:49:06;;;;;;;63.70;18.70;;;;;;;;;;5099230;28;20556;-77
2024/01/12 04:51:32;;;;;;;59.23;16.40;;;;;;;;;;5099462;28;20520;-76
2024/01/12 04:53:59;;;;;;;52.20;18.83;;;;;;;;;;5099295;28;20539;-77
2024/01/12 04:56:27;;;;;;;55.17;16.20;;;;;;;;;;5098059;28;20991;-76
2024/01/12 04:58:53;;;;;;;78.77;17.43;;;;;;;;;;5099243;28;20907;-76
2024/01/12 05:01:21;;;;;;;51.23;15.40;;;;;;;;;;5099911;28;20487;-76
2024/01/12 05:03:48;;;;;;;47.73;16.07;;;;;;;;;;5099060;28;20473;-76
2024/01/12 05:06:14;;;;;;;37.03;13.30;;;;;;;;;;5081011;28;20464;-76
2024/01/12 05:08:41;;;;;;;42.13;13.90;;;;;;;;;;5099103;28;20537;-76
2024/01/12 05:11:07;;;;;;;30.30;11.90;;;;;;;;;;5099568;28;21027;-77
2024/01/12 05:13:35;;;;;;;37.17;10.70;;;;;;;;;;5096820;28;20467;-76
2024/01/12 05:16:02;;;;;;;37.27;10.57;;;;;;;;;;5099538;28;20545;-76
2024/01/12 05:18:28;;;;;;;33.03;11.63;;;;;;;;;;5098483;28;20537;-76
2024/01/12 05:20:55;;;;;;;24.37;9.40;;;;;;;;;;5099132;28;20538;-76
2024/01/12 05:23:21;;;;;;;19.63;9.93;;;;;;;;;;5098608;28;20560;-76
2024/01/12 05:25:48;;;;;;;25.70;8.80;;;;;;;;;;5098866;28;20536;-77
2024/01/12 05:28:14;;;;;;;14.63;7.90;;;;;;;;;;5098328;28;20470;-76
2024/01/12 05:30:43;;;;;;;25.47;9.80;;;;;;;;;;5098892;28;20528;-77
2024/01/12 05:33:09;;;;;;;18.30;8.20;;;;;;;;;;5097767;28;20469;-76
2024/01/12 05:35:36;;;;;;;22.47;8.70;;;;;;;;;;5098428;28;20461;-76
2024/01/12 05:38:03;;;;;;;31.50;10.50;;;;;;;;;;5098072;28;20553;-76
2024/01/12 05:40:30;;;;;;;26.83;10.63;;;;;;;;;;5098905;28;20442;-77
2024/01/12 05:42:56;;;;;;;30.37;10.77;;;;;;;;;;5097721;28;20468;-76
2024/01/12 05:45:23;;;;;;;27.40;11.60;;;;;;;;;;5100432;28;20454;-78
2024/01/12 05:47:51;;;;;;;31.90;11.03;;;;;;;;;;5101075;28;20846;-78
2024/01/12 05:50:17;;;;;;;37.53;12.87;;;;;;;;;;5102996;28;20512;-78
2024/01/12 05:52:44;;;;;;;29.63;11.80;;;;;;;;;;5102449;28;20453;-77
2024/01/12 05:55:10;;;;;;;31.07;10.47;;;;;;;;;;5102883;28;20553;-78
2024/01/12 05:57:37;;;;;;;32.53;11.37;;;;;;;;;;5100367;28;20445;-79
2024/01/12 06:00:05;;;;;;;47.60;15.07;;;;;;;;;;5102839;28;20516;-76
2024/01/12 06:02:31;;;;;;;45.27;10.83;;;;;;;;;;5100600;28;20453;-77
2024/01/12 06:04:59;;;;;;;26.73;9.63;;;;;;;;;;5102485;28;20903;-77
2024/01/12 06:07:26;;;;;;;50.30;11.60;;;;;;;;;;5098270;28;20480;-79
2024/01/12 06:09:53;;;;;;;41.13;12.83;;;;;;;;;;5097708;28;20835;-78
2024/01/12 06:12:19;;;;;;;44.33;10.40;;;;;;;;;;5098840;28;20442;-79
2024/01/12 06:14:48;;;;;;;43.57;10.00;;;;;;;;;;5099585;28;21010;-78
2024/01/12 06:17:15;;;;;;;39.77;11.33;;;;;;;;;;5101597;28;20871;-78
2024/01/12 06:19:41;;;;;;;53.20;14.57;;;;;;;;;;5100612;28;20515;-80
2024/01/12 06:22:10;;;;;;;26.00;9.80;;;;;;;;;;5102347;28;20444;-80
2024/01/12 06:24:36;;;;;;;28.07;9.77;;;;;;;;;;5102086;28;20500;-80
2024/01/12 06:27:03;;;;;;;45.40;11.67;;;;;;;;;;5101777;28;20494;-80
2024/01/12 06:29:29;;;;;;;27.43;11.90;;;;;;;;;;5100861;28;20547;-79
2024/01/12 06:31:56;;;;;;;22.43;9.93;;;;;;;;;;5100815;28;20467;-80
2024/01/12 06:34:22;;;;;;;30.40;10.03;;;;;;;;;;5100026;28;21015;-78
2024/01/12 06:36:51;;;;;;;32.23;10.30;;;;;;;;;;5100865;28;20520;-80
2024/01/12 06:39:20;;;;;;;30.03;10.90;;;;;;;;;;5101393;28;20823;-80
2024/01/12 06:41:46;;;;;;;29.63;11.10;;;;;;;;;;5101158;28;20521;-80
2024/01/12 06:44:13;;;;;;;26.80;10.60;;;;;;;;;;5100444;28;20492;-80
2024/01/12 06:46:41;;;;;;;32.93;12.53;;;;;;;;;;5100749;28;20509;-78
2024/01/12 06:49:08;;;;;;;31.10;11.90;;;;;;;;;;5099621;28;20537;-80
2024/01/12 06:51:35;;;;;;;88.07;19.57;;;;;;;;;;5098803;28;20861;-79
2024/01/12 06:54:01;;;;;;;28.63;10.90;;;;;;;;;;5098969;28;20481;-80
2024/01/12 06:56:30;;;;;;;27.43;10.33;;;;;;;;;;5097822;28;20502;-79
2024/01/12 06:58:58;;;;;;;28.23;10.60;;;;;;;;;;5099181;28;20459;-79
2024/01/12 07:01:25;;;;;;;26.10;10.03;;;;;;;;;;5082327;28;20542;-79
2024/01/12 07:03:52;;;;;;;30.83;12.13;;;;;;;;;;5080854;28;20486;-79
2024/01/12 07:06:19;;;;;;;26.67;10.60;;;;;;;;;;5079948;28;20533;-80
2024/01/12 07:08:48;;;;;;;29.00;10.80;;;;;;;;;;5080079;28;20533;-79
2024/01/12 07:11:14;;;;;;;31.73;11.73;;;;;;;;;;5079939;28;20616;-79
2024/01/12 07:13:44;;;;;;;30.10;11.63;;;;;;;;;;5078983;28;20479;-80
2024/01/12 07:16:11;;;;;;;32.90;12.83;;;;;;;;;;5079417;28;20459;-79
2024/01/12 07:18:37;;;;;;;53.63;13.40;;;;;;;;;;5077912;28;20454;-80
2024/01/12 07:21:04;;;;;;;30.80;10.47;;;;;;;;;;5078467;28;20470;-79
2024/01/12 07:23:31;;;;;;;23.00;12.10;;;;;;;;;;5077701;28;20561;-79
2024/01/12 07:25:59;;;;;;;29.53;12.43;;;;;;;;;;5077512;28;20521;-79
2024/01/12 07:28:25;;;;;;;28.67;12.23;;;;;;;;;;5078186;28;20451;-79
2024/01/12 07:30:54;;;;;;;24.20;11.40;;;;;;;;;;5078943;28;20996;-79
2024/01/12 07:33:21;;;;;;;32.83;12.67;;;;;;;;;;5078557;28;20454;-79
2024/01/12 07:35:47;;;;;;;33.00;14.40;;;;;;;;;;5078632;28;20489;-80
2024/01/12 07:38:14;;;;;;;32.03;13.60;;;;;;;;;;5080028;28;20543;-79
2024/01/12 07:40:40;;;;;;;25.77;12.37;;;;;;;;;;5079669;28;20467;-80
2024/01/12 07:43:07;;;;;;;52.03;15.50;;;;;;;;;;5079105;28;20901;-80
2024/01/12 07:45:33;;;;;;;36.37;14.27;;;;;;;;;;5078448;28;20562;-79
2024/01/12 07:48:01;;;;;;;38.97;14.30;;;;;;;;;;5078856;28;20527;-80
2024/01/12 07:50:27;;;;;;;38.37;13.43;;;;;;;;;;5077475;28;20554;-80
2024/01/12 07:52:54;;;;;;;49.10;14.80;;;;;;;;;;5078087;28;20530;-80
2024/01/12 07:55:20;;;;;;;66.33;16.13;;;;;;;;;;5077561;28;20479;-80
2024/01/12 07:57:47;;;;;;;112.60;24.43;;;;;;;;;;5078963;28;20435;-79
2024/01/12 08:00:14;;;;;;;50.97;15.30;;;;;;;;;;5077893;28;20549;-80
2024/01/12 08:02:40;;;;;;;68.87;17.47;;;;;;;;;;5078976;28;20853;-79
2024/01/12 08:05:09;;;;;;;75.13;19.40;;;;;;;;;;5078951;28;20558;-79
2024/01/12 08:07:37;;;;;;;55.27;18.20;;;;;;;;;;5080942;28;20530;-79
2024/01/12 08:10:03;;;;;;;33.23;14.47;;;;;;;;;;5078816;28;20474;-79
2024/01/12 08:12:30;;;;;;;28.47;13.33;;;;;;;;;;5076047;28;20522;-79
2024/01/12 08:14:57;;;;;;;35.50;14.93;;;;;;;;;;5078967;28;20467;-80
2024/01/12 08:17:23;;;;;;;30.53;13.90;;;;;;;;;;5080174;28;20530;-80
2024/01/12 08:19:50;;;;;;;31.30;14.67;;;;;;;;;;5077299;28;20474;-80
2024/01/12 08:22:17;;;;;;;27.80;13.83;;;;;;;;;;5076915;28;20530;-79
2024/01/12 08:24:44;;;;;;;44.30;15.77;;;;;;;;;;5077288;28;20539;-81
2024/01/12 08:27:10;;;;;;;38.80;15.90;;;;;;;;;;5076882;28;20549;-80
2024/01/12 08:29:37;;;;;;;26.80;14.30;;;;;;;;;;5075966;28;20467;-80
2024/01/12 08:32:03;;;;;;;27.80;11.97;;;;;;;;;;5078982;28;20439;-80
2024/01/12 08:34:30;;;;;;;40.23;16.30;;;;;;;;;;5080880;28;20538;-80
2024/01/12 08:37:00;;;;;;;29.87;15.00;;;;;;;;;;5077429;28;20534;-80
2024/01/12 08:39:31;;;;;;;41.63;16.10;;;;;;;;;;5080019;28;20973;-80
2024/01/12 08:41:57;;;;;;;32.70;14.83;;;;;;;;;;5080246;28;21052;-80
2024/01/12 08:44:24;;;;;;;33.37;14.07;;;;;;;;;;5081000;28;20545;-80
2024/01/12 08:46:52;;;;;;;30.03;13.40;;;;;;;;;;5079215;28;20471;-80
2024/01/12 08:49:19;;;;;;;29.07;15.17;;;;;;;;;;5078946;28;20948;-80
2024/01/12 08:51:45;;;;;;;44.70;16.00;;;;;;;;;;5077430;28;20534;-80
2024/01/12 08:54:12;;;;;;;30.07;14.10;;;;;;;;;;5077292;28;20570;-80
2024/01/12 08:56:40;;;;;;;33.53;14.07;;;;;;;;;;5078749;28;20524;-80
2024/01/12 08:59:09;;;;;;;27.30;13.53;;;;;;;;;;5078659;28;20450;-80
2024/01/12 09:01:36;;;;;;;31.30;13.77;;;;;;;;;;5078715;28;20512;-80
2024/01/12 09:04:03;;;;;;;28.73;14.63;;;;;;;;;;5080265;28;20526;-80
2024/01/12 09:06:29;;;;;;;27.27;14.10;;;;;;;;;;5077127;28;21040;-80
2024/01/12 09:08:58;;;;;;;34.03;15.03;;;;;;;;;;5079357;28;20880;-80
2024/01/12 09:11:24;;;;;;;27.33;13.50;;;;;;;;;;5079126;28;20491;-80
2024/01/12 09:13:57;;;;;;;31.33;13.17;;;;;;;;;;5079780;28;20511;-80
2024/01/12 09:16:23;;;;;;;31.30;14.37;;;;;;;;;;5078795;28;20538;-80
2024/01/12 09:18:50;;;;;;;32.00;13.93;;;;;;;;;;5078510;28;21008;-81
2024/01/12 09:21:16;;;;;;;37.17;14.73;;;;;;;;;;5078862;28;20546;-80
2024/01/12 09:23:44;;;;;;;33.70;13.57;;;;;;;;;;5079468;28;20475;-80
2024/01/12 09:26:12;;;;;;;38.53;15.70;;;;;;;;;;5079065;28;20466;-80
2024/01/12 09:28:40;;;;;;;34.73;14.67;;;;;;;;;;5077451;28;20529;-80
2024/01/12 09:31:08;;;;;;;30.17;16.20;;;;;;;;;;5076292;28;20455;-80
2024/01/12 09:33:35;;;;;;;36.90;14.33;;;;;;;;;;5077878;28;20944;-80
2024/01/12 09:36:03;;;;;;;29.40;15.20;;;;;;;;;;5077572;28;20463;-80
2024/01/12 09:38:32;;;;;;;27.13;13.67;;;;;;;;;;5079921;28;20824;-80
2024/01/12 09:40:59;;;;;;;29.00;14.10;;;;;;;;;;5077785;28;20558;-80
2024/01/12 09:43:28;;;;;;;31.90;16.10;;;;;;;;;;5077569;28;20446;-80
2024/01/12 09:45:58;;;;;;;35.90;15.07;;;;;;;;;;5079174;28;20953;-80
2024/01/12 09:48:27;;;;;;;27.50;14.87;;;;;;;;;;5079535;28;20510;-80
2024/01/12 09:50:58;;;;;;;35.47;14.87;;;;;;;;;;5078417;28;20470;-80
2024/01/12 09:53:24;;;;;;;35.33;15.20;;;;;;;;;;5077140;28;20486;-80
2024/01/12 09:55:51;;;;;;;41.70;17.30;;;;;;;;;;5077073;28;20462;-80
2024/01/12 09:58:18;;;;;;;36.43;16.20;;;;;;;;;;5077105;28;20445;-80
2024/01/12 10:00:46;;;;;;;39.63;16.40;;;;;;;;;;5077168;28;20463;-80
2024/01/12 10:03:13;;;;;;;34.33;16.80;;;;;;;;;;5076933;28;21292;-80
2024/01/12 10:05:42;;;;;;;40.33;16.37;;;;;;;;;;5076350;28;20516;-80
2024/01/12 10:08:08;;;;;;;33.20;15.57;;;;;;;;;;5078023;28;20439;-80
2024/01/12 10:10:37;;;;;;;31.43;14.50;;;;;;;;;;5077112;28;20527;-80
2024/01/12 10:13:03;;;;;;;28.80;15.67;;;;;;;;;;5076127;28;20439;-80
2024/01/12 10:15:32;;;;;;;31.00;17.30;;;;;;;;;;5079072;28;20554;-80
2024/01/12 10:17:59;;;;;;;31.77;15.73;;;;;;;;;;5082672;28;20816;-80
2024/01/12 10:20:26;;;;;;;33.23;15.20;;;;;;;;;;5082961;28;20502;-80
2024/01/12 10:22:58;;;;;;;40.03;17.73;;;;;;;;;;5083453;28;20507;-80
2024/01/12 10:25:24;;;;;;;33.27;16.07;;;;;;;;;;5082350;28;20968;-79
2024/01/12 10:27:55;;;;;;;40.47;16.57;;;;;;;;;;5083438;28;20975;-79
2024/01/12 10:30:22;;;;;;;37.30;18.07;;;;;;;;;;5076579;28;20442;-78
2024/01/12 10:32:51;;;;;;;36.00;16.10;;;;;;;;;;5080429;28;20530;-79
2024/01/12 10:35:20;;;;;;;33.73;16.27;;;;;;;;;;5081806;28;20493;-79
2024/01/12 10:37:47;;;;;;;42.13;18.93;;;;;;;;;;5081038;28;20494;-79
2024/01/12 10:40:16;;;;;;;37.90;16.63;;;;;;;;;;5080593;28;20447;-79
2024/01/12 10:42:44;;;;;;;35.60;18.50;;;;;;;;;;5080916;28;20466;-79
2024/01/12 10:45:13;;;;;;;43.67;19.53;;;;;;;;;;5080265;28;20515;-79
2024/01/12 10:47:41;;;;;;;42.50;16.20;;;;;;;;;;5080029;28;20530;-79
2024/01/12 10:50:12;;;;;;;46.27;18.10;;;;;;;;;;5080869;28;20534;-79
2024/01/12 10:52:47;;;;;;;37.10;17.50;;;;;;;;;;5080292;28;20518;-79
2024/01/12 10:55:16;;;;;;;36.77;19.90;;;;;;;;;;5080479;28;20486;-79
2024/01/12 10:57:43;;;;;;;38.33;17.50;;;;;;;;;;5080058;28;20534;-79
2024/01/12 11:00:10;;;;;;;33.10;16.67;;;;;;;;;;5080507;28;20474;-79
2024/01/12 11:02:37;;;;;;;44.60;19.47;;;;;;;;;;5079302;28;20475;-79
2024/01/12 11:05:04;;;;;;;36.07;19.57;;;;;;;;;;5079930;28;20546;-79
2024/01/12 11:07:31;;;;;;;41.83;18.53;;;;;;;;;;5079183;28;20477;-79
2024/01/12 11:09:59;;;;;;;34.97;18.27;;;;;;;;;;5080462;28;20538;-79
2024/01/12 11:12:30;;;;;;;31.87;17.63;;;;;;;;;;5079374;28;20471;-79
2024/01/12 11:14:57;;;;;;;43.77;18.73;;;;;;;;;;5079759;28;20493;-78
2024/01/12 11:17:28;;;;;;;37.70;16.37;;;;;;;;;;5078417;28;20471;-79
2024/01/12 11:20:03;;;;;;;35.57;19.50;;;;;;;;;;5079145;28;20419;-78
2024/01/12 11:22:30;;;;;;;40.23;18.17;;;;;;;;;;5079368;28;20525;-78
2024/01/12 11:24:58;;;;;;;36.63;17.93;;;;;;;;;;5078936;28;20547;-78
2024/01/12 11:27:32;;;;;;;43.13;19.00;;;;;;;;;;5078345;28;20471;-78
2024/01/12 11:30:00;;;;;;;43.87;19.57;;;;;;;;;;5078804;28;20870;-78
2024/01/12 11:32:28;;;;;;;38.20;17.13;;;;;;;;;;5078703;28;20520;-78
2024/01/12 11:35:10;;;;;;;44.13;18.47;;;;;;;;;;5078655;28;20489;-78
2024/01/12 11:37:37;;;;;;;40.50;16.50;;;;;;;;;;5078027;28;20472;-78
2024/01/12 11:40:07;;;;;;;44.67;15.53;;;;;;;;;;5078969;28;20455;-78
2024/01/12 11:42:35;;;;;;;28.00;14.90;;;;;;;;;;5076989;28;20901;-78
2024/01/12 11:45:02;;;;;;;40.27;15.70;;;;;;;;;;5076187;28;20853;-78
2024/01/12 11:47:30;;;;;;;28.80;18.03;;;;;;;;;;5077111;28;20847;-78
2024/01/12 11:49:57;;;;;;;34.60;16.50;;;;;;;;;;5078084;28;20434;-78
2024/01/12 11:52:23;;;;;;;30.13;15.87;;;;;;;;;;5077547;28;20470;-78
2024/01/12 11:54:50;;;;;;;32.93;15.97;;;;;;;;;;5077356;28;20555;-78
2024/01/12 11:57:20;;;;;;;44.30;16.40;;;;;;;;;;5077199;28;20581;-78
2024/01/12 11:59:48;;;;;;;30.47;14.60;;;;;;;;;;5077527;28;20470;-78
2024/01/12 12:02:16;;;;;;;32.50;15.63;;;;;;;;;;5076719;28;20530;-78
2024/01/12 12:04:42;;;;;;;56.03;18.07;;;;;;;;;;5077052;28;20494;-79
2024/01/12 12:07:09;;;;;;;38.63;15.57;;;;;;;;;;5075661;28;20840;-79
2024/01/12 12:09:37;;;;;;;34.57;16.73;;;;;;;;;;5075766;28;20450;-79
2024/01/12 12:12:06;;;;;;;31.53;14.87;;;;;;;;;;5074744;28;20477;-79
2024/01/12 12:14:33;;;;;;;34.13;16.47;;;;;;;;;;5075488;28;20538;-79
2024/01/12 12:17:02;;;;;;;33.73;15.17;;;;;;;;;;5075394;28;20489;-79
2024/01/12 12:19:28;;;;;;;36.83;15.73;;;;;;;;;;5076331;28;20899;-79
2024/01/12 12:21:55;;;;;;;33.57;13.33;;;;;;;;;;5075888;28;20481;-80
2024/01/12 12:24:21;;;;;;;35.83;14.53;;;;;;;;;;5074398;28;20813;-79
2024/01/12 12:26:49;;;;;;;37.87;17.43;;;;;;;;;;5074711;28;20548;-80
2024/01/12 12:29:18;;;;;;;25.87;13.60;;;;;;;;;;5074407;28;20470;-79
2024/01/12 12:31:45;;;;;;;31.03;14.80;;;;;;;;;;5073428;28;20503;-79
2024/01/12 12:34:16;;;;;;;32.47;13.90;;;;;;;;;;5074210;28;20445;-79
2024/01/12 12:36:45;;;;;;;29.33;13.67;;;;;;;;;;5074206;28;20473;-79
2024/01/12 12:39:13;;;;;;;30.30;13.53;;;;;;;;;;5074825;28;20437;-79
2024/01/12 12:41:39;;;;;;;31.97;12.83;;;;;;;;;;5074079;28;20525;-80
2024/01/12 12:44:06;;;;;;;29.23;13.00;;;;;;;;;;5074391;28;20492;-79
2024/01/12 12:46:32;;;;;;;32.87;13.97;;;;;;;;;;5073536;28;20505;-78
2024/01/12 12:48:59;;;;;;;41.83;13.93;;;;;;;;;;5074820;28;20439;-79
2024/01/12 12:51:28;;;;;;;31.63;12.37;;;;;;;;;;5073702;28;20844;-79
2024/01/12 12:53:55;;;;;;;33.40;12.97;;;;;;;;;;5075415;28;20533;-80
2024/01/12 12:56:22;;;;;;;32.90;14.97;;;;;;;;;;5073456;28;20471;-80
2024/01/12 12:58:49;;;;;;;32.27;14.30;;;;;;;;;;5073888;28;20442;-80
2024/01/12 13:01:16;;;;;;;30.53;12.67;;;;;;;;;;5073438;28;20865;-80
2024/01/12 13:03:42;;;;;;;24.97;12.90;;;;;;;;;;5073448;28;20488;-80
2024/01/12 13:06:09;;;;;;;35.97;14.97;;;;;;;;;;5071989;28;20529;-80
2024/01/12 13:08:36;;;;;;;27.83;13.53;;;;;;;;;;5073913;28;20435;-80
2024/01/12 13:11:03;;;;;;;25.43;12.53;;;;;;;;;;5073162;28;21002;-80
2024/01/12 13:13:29;;;;;;;35.43;13.40;;;;;;;;;;5073943;28;20510;-80
2024/01/12 13:15:58;;;;;;;26.30;11.93;;;;;;;;;;5072815;28;20909;-80
2024/01/12 13:18:24;;;;;;;29.67;12.53;;;;;;;;;;5073522;28;20435;-80
2024/01/12 13:20:51;;;;;;;26.90;10.80;;;;;;;;;;5073136;28;21008;-80
2024/01/12 13:23:19;;;;;;;32.80;14.53;;;;;;;;;;5073984;28;20437;-80
2024/01/12 13:25:46;;;;;;;27.00;10.97;;;;;;;;;;5072810;28;20558;-80
2024/01/12 13:28:13;;;;;;;24.07;11.67;;;;;;;;;;5073437;28;20819;-80
2024/01/12 13:30:40;;;;;;;27.30;13.03;;;;;;;;;;5072948;28;20434;-80
2024/01/12 13:33:07;;;;;;;30.07;13.07;;;;;;;;;;5073373;28;20528;-80
2024/01/12 13:35:34;;;;;;;31.60;12.70;;;;;;;;;;5072819;28;20912;-80
2024/01/12 13:38:00;;;;;;;38.13;16.57;;;;;;;;;;5073480;28;20473;-80
2024/01/12 13:40:28;;;;;;;29.13;13.27;;;;;;;;;;5072774;28;20533;-80
2024/01/12 13:43:00;;;;;;;52.90;25.13;;;;;;;;;;5073196;28;20434;-81
2024/01/12 13:45:28;;;;;;;33.70;18.70;;;;;;;;;;5076412;28;20485;-82
2024/01/12 13:47:55;;;;;;;40.40;22.30;;;;;;;;;;5075051;28;20527;-78
2024/01/12 13:50:21;;;;;;;39.03;18.83;;;;;;;;;;5075082;28;20447;-80
2024/01/12 13:52:48;;;;;;;28.37;13.77;;;;;;;;;;5055251;28;20817;-80
2024/01/12 13:55:15;;;;;;;35.37;15.63;;;;;;;;;;5073143;28;20562;-80
2024/01/12 13:57:42;;;;;;;32.80;13.63;;;;;;;;;;5092760;28;21005;-79
2024/01/12 14:00:12;;;;;;;28.33;14.40;;;;;;;;;;5093540;28;20438;-79
2024/01/12 14:02:39;;;;;;;32.53;14.77;;;;;;;;;;5074105;28;21090;-79
2024/01/12 14:05:06;;;;;;;36.33;12.37;;;;;;;;;;5072901;28;20545;-79
2024/01/12 14:07:32;;;;;;;29.10;12.60;;;;;;;;;;5095369;28;20472;-79
2024/01/12 14:10:01;;;;;;;38.63;12.30;;;;;;;;;;5097064;28;20508;-79
2024/01/12 14:12:29;;;;;;;36.80;18.20;;;;;;;;;;5078814;28;20898;-79
2024/01/12 14:14:56;;;;;;;37.30;14.57;;;;;;;;;;5076458;28;20471;-79
2024/01/12 14:17:24;;;;;;;35.40;11.00;;;;;;;;;;5092961;28;20848;-79
2024/01/12 14:19:51;;;;;;;36.40;16.20;;;;;;;;;;5097257;28;20445;-79